Terminal Aerodrome Forecast
Issued by NWS Atlanta, GA

Home | Current Version | Previous Version | Text Only | Print | Product List | Glossary On
Versions: 1 2 3 4 5 6 7 8 9 10 11 12 13 14 15 16 17 18 19 20 21 22 23 24 25 26 27 28 29 30 31 32 33 34 35 36 37 38 39 40 41 42
000
FTAK31 PAJN 171500 AAA
TAFAHN
TAF AMD
PAHN 171524Z 1715/1812 VRB03KT P6SM BCFG BKN006 OVC012
     FM171700 11005KT P6SM VCFG SCT005 BKN050
     FM171900 10007KT P6SM BKN050
     FM180500 10009KT P6SM VCSH OVC040
      AMD LTD TO CLD VIS AND WIND=

USA.gov is the U.S. government's official web portal to all federal, state and local government web resources and services.